sensor_id;sensor_type;location;lat;lon;timestamp;P1;durP1;ratioP1;P2;durP2;ratioP2
21352;SDS011;10834;52.268;6.770;2024-02-21T00:00:11;27.90;;;15.50;;
21352;SDS011;10834;52.268;6.770;2024-02-21T00:02:56;29.30;;;15.03;;
21352;SDS011;10834;52.268;6.770;2024-02-21T00:05:43;25.97;;;14.27;;
21352;SDS011;10834;52.268;6.770;2024-02-21T00:08:27;28.93;;;13.43;;
21352;SDS011;10834;52.268;6.770;2024-02-21T00:11:11;32.63;;;14.20;;
21352;SDS011;10834;52.268;6.770;2024-02-21T00:13:55;28.77;;;14.70;;
21352;SDS011;10834;52.268;6.770;2024-02-21T00:16:39;29.87;;;13.00;;
21352;SDS011;10834;52.268;6.770;2024-02-21T00:19:23;29.97;;;13.57;;
21352;SDS011;10834;52.268;6.770;2024-02-21T00:22:07;28.90;;;13.67;;
21352;SDS011;10834;52.268;6.770;2024-02-21T00:24:52;29.43;;;14.23;;
21352;SDS011;10834;52.268;6.770;2024-02-21T00:27:36;26.03;;;14.03;;
21352;SDS011;10834;52.268;6.770;2024-02-21T00:30:20;29.40;;;14.03;;
21352;SDS011;10834;52.268;6.770;2024-02-21T00:33:04;25.43;;;14.17;;
21352;SDS011;10834;52.268;6.770;2024-02-21T00:35:48;30.23;;;14.60;;
21352;SDS011;10834;52.268;6.770;2024-02-21T00:38:32;25.30;;;13.87;;
21352;SDS011;10834;52.268;6.770;2024-02-21T00:41:17;25.30;;;13.23;;
21352;SDS011;10834;52.268;6.770;2024-02-21T00:44:01;24.03;;;13.23;;
21352;SDS011;10834;52.268;6.770;2024-02-21T00:46:45;29.23;;;13.20;;
21352;SDS011;10834;52.268;6.770;2024-02-21T00:49:30;28.50;;;13.87;;
21352;SDS011;10834;52.268;6.770;2024-02-21T00:52:14;32.37;;;13.70;;
21352;SDS011;10834;52.268;6.770;2024-02-21T00:54:58;29.83;;;12.83;;
21352;SDS011;10834;52.268;6.770;2024-02-21T00:57:42;23.70;;;12.73;;
21352;SDS011;10834;52.268;6.770;2024-02-21T01:00:26;23.57;;;13.53;;
21352;SDS011;10834;52.268;6.770;2024-02-21T01:03:10;23.80;;;12.10;;
21352;SDS011;10834;52.268;6.770;2024-02-21T01:05:54;27.90;;;12.63;;
21352;SDS011;10834;52.268;6.770;2024-02-21T01:08:38;23.80;;;13.37;;
21352;SDS011;10834;52.268;6.770;2024-02-21T01:11:23;25.00;;;11.97;;
21352;SDS011;10834;52.268;6.770;2024-02-21T01:14:07;24.60;;;13.90;;
21352;SDS011;10834;52.268;6.770;2024-02-21T01:16:51;29.17;;;12.70;;
21352;SDS011;10834;52.268;6.770;2024-02-21T01:19:35;23.93;;;12.33;;
21352;SDS011;10834;52.268;6.770;2024-02-21T01:22:19;22.60;;;12.60;;
21352;SDS011;10834;52.268;6.770;2024-02-21T01:25:03;36.37;;;12.47;;
21352;SDS011;10834;52.268;6.770;2024-02-21T01:27:47;23.30;;;12.23;;
21352;SDS011;10834;52.268;6.770;2024-02-21T01:30:31;24.33;;;12.20;;
21352;SDS011;10834;52.268;6.770;2024-02-21T01:33:16;24.03;;;12.20;;
21352;SDS011;10834;52.268;6.770;2024-02-21T01:36:03;22.27;;;12.60;;
21352;SDS011;10834;52.268;6.770;2024-02-21T01:38:50;23.43;;;13.13;;
21352;SDS011;10834;52.268;6.770;2024-02-21T01:41:34;24.57;;;12.07;;
21352;SDS011;10834;52.268;6.770;2024-02-21T01:44:18;26.60;;;13.17;;
21352;SDS011;10834;52.268;6.770;2024-02-21T01:47:02;23.63;;;12.23;;
21352;SDS011;10834;52.268;6.770;2024-02-21T01:49:47;28.73;;;13.67;;
21352;SDS011;10834;52.268;6.770;2024-02-21T01:52:31;25.73;;;11.50;;
21352;SDS011;10834;52.268;6.770;2024-02-21T01:55:18;22.70;;;12.47;;
21352;SDS011;10834;52.268;6.770;2024-02-21T01:58:02;23.00;;;11.47;;
21352;SDS011;10834;52.268;6.770;2024-02-21T02:00:47;21.27;;;11.93;;
21352;SDS011;10834;52.268;6.770;2024-02-21T02:03:32;23.77;;;12.00;;
21352;SDS011;10834;52.268;6.770;2024-02-21T02:06:17;24.00;;;12.60;;
21352;SDS011;10834;52.268;6.770;2024-02-21T02:09:01;26.73;;;13.23;;
21352;SDS011;10834;52.268;6.770;2024-02-21T02:11:45;21.90;;;11.90;;
21352;SDS011;10834;52.268;6.770;2024-02-21T02:14:29;26.83;;;13.73;;
21352;SDS011;10834;52.268;6.770;2024-02-21T02:17:13;27.10;;;12.73;;
21352;SDS011;10834;52.268;6.770;2024-02-21T02:19:57;24.83;;;12.13;;
21352;SDS011;10834;52.268;6.770;2024-02-21T02:22:41;23.10;;;13.20;;
21352;SDS011;10834;52.268;6.770;2024-02-21T02:25:29;27.63;;;12.57;;
21352;SDS011;10834;52.268;6.770;2024-02-21T02:28:13;24.50;;;12.50;;
21352;SDS011;10834;52.268;6.770;2024-02-21T02:30:57;25.77;;;12.33;;
21352;SDS011;10834;52.268;6.770;2024-02-21T02:33:44;26.90;;;12.63;;
21352;SDS011;10834;52.268;6.770;2024-02-21T02:36:29;27.73;;;12.73;;
21352;SDS011;10834;52.268;6.770;2024-02-21T02:39:16;28.73;;;12.93;;
21352;SDS011;10834;52.268;6.770;2024-02-21T02:42:01;23.67;;;12.73;;
21352;SDS011;10834;52.268;6.770;2024-02-21T02:44:46;27.43;;;12.50;;
21352;SDS011;10834;52.268;6.770;2024-02-21T02:47:30;19.13;;;12.07;;
21352;SDS011;10834;52.268;6.770;2024-02-21T02:50:14;25.43;;;13.27;;
21352;SDS011;10834;52.268;6.770;2024-02-21T02:52:58;28.23;;;13.63;;
21352;SDS011;10834;52.268;6.770;2024-02-21T02:55:42;27.73;;;12.20;;
21352;SDS011;10834;52.268;6.770;2024-02-21T02:58:28;26.03;;;12.67;;
21352;SDS011;10834;52.268;6.770;2024-02-21T03:01:12;23.43;;;11.60;;
21352;SDS011;10834;52.268;6.770;2024-02-21T03:03:57;20.63;;;11.77;;
21352;SDS011;10834;52.268;6.770;2024-02-21T03:06:41;27.23;;;12.80;;
21352;SDS011;10834;52.268;6.770;2024-02-21T03:09:26;30.97;;;12.93;;
21352;SDS011;10834;52.268;6.770;2024-02-21T03:12:10;22.87;;;11.60;;
21352;SDS011;10834;52.268;6.770;2024-02-21T03:14:54;19.47;;;12.37;;
21352;SDS011;10834;52.268;6.770;2024-02-21T03:17:39;25.63;;;11.93;;
21352;SDS011;10834;52.268;6.770;2024-02-21T03:20:24;21.50;;;12.10;;
21352;SDS011;10834;52.268;6.770;2024-02-21T03:23:08;23.57;;;12.53;;
21352;SDS011;10834;52.268;6.770;2024-02-21T03:25:52;20.60;;;13.07;;
21352;SDS011;10834;52.268;6.770;2024-02-21T03:28:36;24.30;;;11.77;;
21352;SDS011;10834;52.268;6.770;2024-02-21T03:31:20;25.87;;;13.70;;
21352;SDS011;10834;52.268;6.770;2024-02-21T03:34:04;27.43;;;13.20;;
21352;SDS011;10834;52.268;6.770;2024-02-21T03:36:48;23.47;;;12.63;;
21352;SDS011;10834;52.268;6.770;2024-02-21T03:39:32;27.63;;;12.90;;
21352;SDS011;10834;52.268;6.770;2024-02-21T03:42:17;26.40;;;13.40;;
21352;SDS011;10834;52.268;6.770;2024-02-21T03:45:01;25.73;;;13.10;;
21352;SDS011;10834;52.268;6.770;2024-02-21T03:47:45;24.40;;;13.37;;
21352;SDS011;10834;52.268;6.770;2024-02-21T03:50:29;21.23;;;13.43;;
21352;SDS011;10834;52.268;6.770;2024-02-21T03:53:13;23.13;;;13.80;;
21352;SDS011;10834;52.268;6.770;2024-02-21T03:55:57;23.87;;;12.97;;
21352;SDS011;10834;52.268;6.770;2024-02-21T03:58:46;27.93;;;13.17;;
21352;SDS011;10834;52.268;6.770;2024-02-21T04:01:31;24.90;;;13.13;;
21352;SDS011;10834;52.268;6.770;2024-02-21T04:04:15;32.30;;;13.30;;
21352;SDS011;10834;52.268;6.770;2024-02-21T04:06:59;21.57;;;12.70;;
21352;SDS011;10834;52.268;6.770;2024-02-21T04:09:43;25.43;;;13.67;;
21352;SDS011;10834;52.268;6.770;2024-02-21T04:12:28;23.23;;;14.23;;
21352;SDS011;10834;52.268;6.770;2024-02-21T04:15:12;25.47;;;12.67;;
21352;SDS011;10834;52.268;6.770;2024-02-21T04:17:57;31.83;;;13.80;;
21352;SDS011;10834;52.268;6.770;2024-02-21T04:20:41;25.63;;;12.23;;
21352;SDS011;10834;52.268;6.770;2024-02-21T04:23:25;26.37;;;12.57;;
21352;SDS011;10834;52.268;6.770;2024-02-21T04:26:09;20.20;;;13.30;;
21352;SDS011;10834;52.268;6.770;2024-02-21T04:28:53;27.07;;;13.10;;
21352;SDS011;10834;52.268;6.770;2024-02-21T04:31:37;22.10;;;12.60;;
21352;SDS011;10834;52.268;6.770;2024-02-21T04:34:21;23.07;;;13.30;;
21352;SDS011;10834;52.268;6.770;2024-02-21T04:37:05;24.43;;;11.50;;
21352;SDS011;10834;52.268;6.770;2024-02-21T04:39:49;27.63;;;13.37;;
21352;SDS011;10834;52.268;6.770;2024-02-21T04:42:34;28.30;;;12.77;;
21352;SDS011;10834;52.268;6.770;2024-02-21T04:45:18;29.03;;;13.17;;
21352;SDS011;10834;52.268;6.770;2024-02-21T04:48:03;25.33;;;13.47;;
21352;SDS011;10834;52.268;6.770;2024-02-21T04:50:47;31.47;;;14.33;;
21352;SDS011;10834;52.268;6.770;2024-02-21T04:53:31;24.37;;;13.00;;
21352;SDS011;10834;52.268;6.770;2024-02-21T04:56:15;25.83;;;13.17;;
21352;SDS011;10834;52.268;6.770;2024-02-21T04:58:59;25.03;;;13.77;;
21352;SDS011;10834;52.268;6.770;2024-02-21T05:01:43;27.20;;;13.00;;
21352;SDS011;10834;52.268;6.770;2024-02-21T05:04:27;22.20;;;12.73;;
21352;SDS011;10834;52.268;6.770;2024-02-21T05:07:11;24.60;;;12.40;;
21352;SDS011;10834;52.268;6.770;2024-02-21T05:09:55;25.63;;;12.03;;
21352;SDS011;10834;52.268;6.770;2024-02-21T05:12:40;20.77;;;11.03;;
21352;SDS011;10834;52.268;6.770;2024-02-21T05:15:24;23.77;;;11.67;;
21352;SDS011;10834;52.268;6.770;2024-02-21T05:18:09;22.17;;;12.00;;
21352;SDS011;10834;52.268;6.770;2024-02-21T05:20:53;20.13;;;11.30;;
21352;SDS011;10834;52.268;6.770;2024-02-21T05:23:37;21.77;;;11.30;;
21352;SDS011;10834;52.268;6.770;2024-02-21T05:26:26;21.80;;;11.20;;
21352;SDS011;10834;52.268;6.770;2024-02-21T05:29:11;20.80;;;10.63;;
21352;SDS011;10834;52.268;6.770;2024-02-21T05:31:55;23.47;;;11.57;;
21352;SDS011;10834;52.268;6.770;2024-02-21T05:34:41;27.77;;;11.20;;
21352;SDS011;10834;52.268;6.770;2024-02-21T05:37:25;17.57;;;11.00;;
21352;SDS011;10834;52.268;6.770;2024-02-21T05:40:09;17.33;;;11.80;;
21352;SDS011;10834;52.268;6.770;2024-02-21T05:42:56;18.37;;;10.33;;
21352;SDS011;10834;52.268;6.770;2024-02-21T05:45:41;21.17;;;11.73;;
21352;SDS011;10834;52.268;6.770;2024-02-21T05:48:25;19.23;;;9.40;;
21352;SDS011;10834;52.268;6.770;2024-02-21T05:51:09;18.50;;;10.50;;
21352;SDS011;10834;52.268;6.770;2024-02-21T05:53:53;23.90;;;11.60;;
21352;SDS011;10834;52.268;6.770;2024-02-21T05:56:37;21.43;;;10.50;;
21352;SDS011;10834;52.268;6.770;2024-02-21T05:59:21;27.17;;;10.60;;
21352;SDS011;10834;52.268;6.770;2024-02-21T06:02:05;13.53;;;8.37;;
21352;SDS011;10834;52.268;6.770;2024-02-21T06:04:49;24.60;;;9.77;;
21352;SDS011;10834;52.268;6.770;2024-02-21T06:07:34;20.20;;;10.33;;
21352;SDS011;10834;52.268;6.770;2024-02-21T06:10:18;16.97;;;9.80;;
21352;SDS011;10834;52.268;6.770;2024-02-21T06:13:03;16.80;;;9.73;;
21352;SDS011;10834;52.268;6.770;2024-02-21T06:15:47;16.73;;;9.77;;
21352;SDS011;10834;52.268;6.770;2024-02-21T06:18:31;16.70;;;10.47;;
21352;SDS011;10834;52.268;6.770;2024-02-21T06:21:15;16.73;;;8.87;;
21352;SDS011;10834;52.268;6.770;2024-02-21T06:24:00;16.67;;;9.30;;
21352;SDS011;10834;52.268;6.770;2024-02-21T06:26:44;17.23;;;9.00;;
21352;SDS011;10834;52.268;6.770;2024-02-21T06:29:28;17.33;;;7.97;;
21352;SDS011;10834;52.268;6.770;2024-02-21T06:32:12;23.27;;;9.23;;
21352;SDS011;10834;52.268;6.770;2024-02-21T06:34:56;18.63;;;9.87;;
21352;SDS011;10834;52.268;6.770;2024-02-21T06:37:40;18.37;;;10.33;;
21352;SDS011;10834;52.268;6.770;2024-02-21T06:40:25;14.30;;;8.53;;
21352;SDS011;10834;52.268;6.770;2024-02-21T06:43:09;16.40;;;7.63;;
21352;SDS011;10834;52.268;6.770;2024-02-21T06:45:53;17.23;;;6.90;;
21352;SDS011;10834;52.268;6.770;2024-02-21T06:48:38;11.70;;;6.93;;
21352;SDS011;10834;52.268;6.770;2024-02-21T06:51:22;11.43;;;7.60;;
21352;SDS011;10834;52.268;6.770;2024-02-21T06:54:06;17.77;;;7.70;;
21352;SDS011;10834;52.268;6.770;2024-02-21T06:56:50;15.70;;;6.50;;
21352;SDS011;10834;52.268;6.770;2024-02-21T06:59:34;16.20;;;7.03;;
21352;SDS011;10834;52.268;6.770;2024-02-21T07:02:18;18.57;;;7.20;;
21352;SDS011;10834;52.268;6.770;2024-02-21T07:05:03;18.77;;;9.90;;
21352;SDS011;10834;52.268;6.770;2024-02-21T07:07:47;12.73;;;7.33;;
21352;SDS011;10834;52.268;6.770;2024-02-21T07:10:31;14.83;;;7.83;;
21352;SDS011;10834;52.268;6.770;2024-02-21T07:13:15;17.50;;;8.33;;
21352;SDS011;10834;52.268;6.770;2024-02-21T07:16:01;16.97;;;7.33;;
21352;SDS011;10834;52.268;6.770;2024-02-21T07:18:45;17.37;;;8.63;;
21352;SDS011;10834;52.268;6.770;2024-02-21T07:21:29;19.20;;;8.17;;
21352;SDS011;10834;52.268;6.770;2024-02-21T07:24:13;16.93;;;7.53;;
21352;SDS011;10834;52.268;6.770;2024-02-21T07:26:57;18.73;;;8.97;;
21352;SDS011;10834;52.268;6.770;2024-02-21T07:29:41;12.63;;;8.70;;
21352;SDS011;10834;52.268;6.770;2024-02-21T07:32:26;17.07;;;9.07;;
21352;SDS011;10834;52.268;6.770;2024-02-21T07:35:10;13.83;;;8.93;;
21352;SDS011;10834;52.268;6.770;2024-02-21T07:37:55;16.93;;;8.83;;
21352;SDS011;10834;52.268;6.770;2024-02-21T07:40:39;16.73;;;10.83;;
21352;SDS011;10834;52.268;6.770;2024-02-21T07:43:23;19.47;;;9.47;;
21352;SDS011;10834;52.268;6.770;2024-02-21T07:46:10;15.07;;;9.00;;
21352;SDS011;10834;52.268;6.770;2024-02-21T07:48:54;22.40;;;10.37;;
21352;SDS011;10834;52.268;6.770;2024-02-21T07:51:38;16.47;;;9.97;;
21352;SDS011;10834;52.268;6.770;2024-02-21T07:54:22;20.07;;;10.43;;
21352;SDS011;10834;52.268;6.770;2024-02-21T07:57:07;19.17;;;9.50;;
21352;SDS011;10834;52.268;6.770;2024-02-21T07:59:51;14.07;;;9.17;;
21352;SDS011;10834;52.268;6.770;2024-02-21T08:02:36;22.60;;;9.60;;
21352;SDS011;10834;52.268;6.770;2024-02-21T08:05:21;18.33;;;8.83;;
21352;SDS011;10834;52.268;6.770;2024-02-21T08:08:05;22.20;;;8.67;;
21352;SDS011;10834;52.268;6.770;2024-02-21T08:10:52;20.17;;;8.73;;
21352;SDS011;10834;52.268;6.770;2024-02-21T08:13:36;19.67;;;8.97;;
21352;SDS011;10834;52.268;6.770;2024-02-21T08:16:20;12.83;;;7.87;;
21352;SDS011;10834;52.268;6.770;2024-02-21T08:19:04;15.10;;;7.67;;
21352;SDS011;10834;52.268;6.770;2024-02-21T08:21:48;13.93;;;8.20;;
21352;SDS011;10834;52.268;6.770;2024-02-21T08:24:32;17.30;;;8.17;;
21352;SDS011;10834;52.268;6.770;2024-02-21T08:27:17;16.10;;;7.30;;
21352;SDS011;10834;52.268;6.770;2024-02-21T08:30:01;16.87;;;6.87;;
21352;SDS011;10834;52.268;6.770;2024-02-21T08:32:45;13.10;;;6.27;;
21352;SDS011;10834;52.268;6.770;2024-02-21T08:35:29;14.10;;;6.83;;
21352;SDS011;10834;52.268;6.770;2024-02-21T08:38:13;16.87;;;7.60;;
21352;SDS011;10834;52.268;6.770;2024-02-21T08:40:58;12.70;;;6.77;;
21352;SDS011;10834;52.268;6.770;2024-02-21T08:43:42;11.93;;;7.47;;
21352;SDS011;10834;52.268;6.770;2024-02-21T08:46:26;11.50;;;7.23;;
21352;SDS011;10834;52.268;6.770;2024-02-21T08:49:11;14.73;;;7.27;;
21352;SDS011;10834;52.268;6.770;2024-02-21T08:51:55;11.97;;;7.20;;
21352;SDS011;10834;52.268;6.770;2024-02-21T08:54:39;12.33;;;6.30;;
21352;SDS011;10834;52.268;6.770;2024-02-21T08:57:23;13.20;;;7.23;;
21352;SDS011;10834;52.268;6.770;2024-02-21T09:00:07;15.30;;;6.63;;
21352;SDS011;10834;52.268;6.770;2024-02-21T09:02:56;10.47;;;7.10;;
21352;SDS011;10834;52.268;6.770;2024-02-21T09:05:40;10.37;;;6.33;;
21352;SDS011;10834;52.268;6.770;2024-02-21T09:08:24;14.50;;;6.73;;
21352;SDS011;10834;52.268;6.770;2024-02-21T09:11:09;13.40;;;7.00;;
21352;SDS011;10834;52.268;6.770;2024-02-21T09:13:53;14.50;;;6.93;;
21352;SDS011;10834;52.268;6.770;2024-02-21T09:16:37;10.47;;;6.87;;
21352;SDS011;10834;52.268;6.770;2024-02-21T09:19:21;13.97;;;6.83;;
21352;SDS011;10834;52.268;6.770;2024-02-21T09:22:06;15.63;;;8.60;;
21352;SDS011;10834;52.268;6.770;2024-02-21T09:24:50;12.83;;;6.47;;
21352;SDS011;10834;52.268;6.770;2024-02-21T09:27:34;14.47;;;7.27;;
21352;SDS011;10834;52.268;6.770;2024-02-21T09:30:18;18.10;;;7.57;;
21352;SDS011;10834;52.268;6.770;2024-02-21T09:33:03;11.93;;;6.90;;
21352;SDS011;10834;52.268;6.770;2024-02-21T09:35:48;13.43;;;7.20;;
21352;SDS011;10834;52.268;6.770;2024-02-21T09:38:33;19.30;;;7.80;;
21352;SDS011;10834;52.268;6.770;2024-02-21T09:41:26;14.87;;;8.17;;
21352;SDS011;10834;52.268;6.770;2024-02-21T09:44:14;17.73;;;7.27;;
21352;SDS011;10834;52.268;6.770;2024-02-21T09:47:02;17.13;;;7.30;;
21352;SDS011;10834;52.268;6.770;2024-02-21T09:49:50;14.57;;;6.80;;
21352;SDS011;10834;52.268;6.770;2024-02-21T09:52:35;16.30;;;7.07;;
21352;SDS011;10834;52.268;6.770;2024-02-21T09:55:21;14.70;;;6.43;;
21352;SDS011;10834;52.268;6.770;2024-02-21T09:58:07;14.20;;;6.90;;
21352;SDS011;10834;52.268;6.770;2024-02-21T10:00:52;14.37;;;6.83;;
21352;SDS011;10834;52.268;6.770;2024-02-21T10:03:36;16.70;;;6.27;;
21352;SDS011;10834;52.268;6.770;2024-02-21T10:06:22;11.83;;;6.23;;
21352;SDS011;10834;52.268;6.770;2024-02-21T10:09:06;13.60;;;6.70;;
21352;SDS011;10834;52.268;6.770;2024-02-21T10:11:51;11.00;;;6.73;;
21352;SDS011;10834;52.268;6.770;2024-02-21T10:14:35;15.03;;;6.97;;
21352;SDS011;10834;52.268;6.770;2024-02-21T10:17:20;17.43;;;8.70;;
21352;SDS011;10834;52.268;6.770;2024-02-21T10:20:10;10.43;;;5.53;;
21352;SDS011;10834;52.268;6.770;2024-02-21T10:23:04;10.73;;;6.30;;
21352;SDS011;10834;52.268;6.770;2024-02-21T10:25:53;9.03;;;5.80;;
21352;SDS011;10834;52.268;6.770;2024-02-21T10:28:37;9.80;;;6.13;;
21352;SDS011;10834;52.268;6.770;2024-02-21T10:31:31;14.30;;;5.83;;
21352;SDS011;10834;52.268;6.770;2024-02-21T10:34:17;13.77;;;5.80;;
21352;SDS011;10834;52.268;6.770;2024-02-21T10:37:02;9.67;;;5.50;;
21352;SDS011;10834;52.268;6.770;2024-02-21T10:39:49;14.47;;;6.03;;
21352;SDS011;10834;52.268;6.770;2024-02-21T10:42:35;8.90;;;5.83;;
21352;SDS011;10834;52.268;6.770;2024-02-21T10:45:21;8.93;;;5.17;;
21352;SDS011;10834;52.268;6.770;2024-02-21T10:50:57;10.90;;;5.83;;
21352;SDS011;10834;52.268;6.770;2024-02-21T10:53:50;7.83;;;5.40;;
21352;SDS011;10834;52.268;6.770;2024-02-21T10:56:56;9.73;;;5.80;;
21352;SDS011;10834;52.268;6.770;2024-02-21T10:59:42;9.10;;;5.00;;
21352;SDS011;10834;52.268;6.770;2024-02-21T11:02:28;10.20;;;5.27;;
21352;SDS011;10834;52.268;6.770;2024-02-21T11:05:15;9.60;;;4.13;;
21352;SDS011;10834;52.268;6.770;2024-02-21T11:08:00;5.83;;;4.00;;
21352;SDS011;10834;52.268;6.770;2024-02-21T11:10:46;10.87;;;4.70;;
21352;SDS011;10834;52.268;6.770;2024-02-21T11:13:31;6.23;;;4.83;;
21352;SDS011;10834;52.268;6.770;2024-02-21T11:16:21;8.43;;;4.23;;
21352;SDS011;10834;52.268;6.770;2024-02-21T11:19:07;8.47;;;4.77;;
21352;SDS011;10834;52.268;6.770;2024-02-21T11:21:54;9.67;;;4.90;;
21352;SDS011;10834;52.268;6.770;2024-02-21T11:24:39;5.83;;;4.50;;
21352;SDS011;10834;52.268;6.770;2024-02-21T11:27:23;5.80;;;3.90;;
21352;SDS011;10834;52.268;6.770;2024-02-21T11:30:11;7.23;;;3.70;;
21352;SDS011;10834;52.268;6.770;2024-02-21T11:33:02;5.57;;;3.30;;
21352;SDS011;10834;52.268;6.770;2024-02-21T11:35:48;9.33;;;3.30;;
21352;SDS011;10834;52.268;6.770;2024-02-21T11:38:32;8.83;;;3.20;;
21352;SDS011;10834;52.268;6.770;2024-02-21T11:41:16;7.07;;;3.90;;
21352;SDS011;10834;52.268;6.770;2024-02-21T11:44:00;5.40;;;3.73;;
21352;SDS011;10834;52.268;6.770;2024-02-21T11:46:44;5.40;;;3.67;;
21352;SDS011;10834;52.268;6.770;2024-02-21T11:49:30;5.10;;;3.20;;
21352;SDS011;10834;52.268;6.770;2024-02-21T11:52:14;3.67;;;3.03;;
21352;SDS011;10834;52.268;6.770;2024-02-21T11:55:00;5.00;;;3.73;;
21352;SDS011;10834;52.268;6.770;2024-02-21T11:57:48;5.80;;;4.10;;
21352;SDS011;10834;52.268;6.770;2024-02-21T12:00:33;4.27;;;3.67;;
21352;SDS011;10834;52.268;6.770;2024-02-21T12:03:17;8.77;;;4.77;;
21352;SDS011;10834;52.268;6.770;2024-02-21T12:06:01;7.00;;;4.03;;
21352;SDS011;10834;52.268;6.770;2024-02-21T12:08:47;10.20;;;4.60;;
21352;SDS011;10834;52.268;6.770;2024-02-21T12:11:31;9.30;;;4.73;;
21352;SDS011;10834;52.268;6.770;2024-02-21T12:14:16;9.70;;;5.00;;
21352;SDS011;10834;52.268;6.770;2024-02-21T12:17:00;13.17;;;5.33;;
21352;SDS011;10834;52.268;6.770;2024-02-21T12:19:47;15.00;;;5.80;;
21352;SDS011;10834;52.268;6.770;2024-02-21T12:22:33;11.65;;;5.60;;
21352;SDS011;10834;52.268;6.770;2024-02-21T12:25:17;12.37;;;5.70;;
21352;SDS011;10834;52.268;6.770;2024-02-21T12:28:03;7.20;;;4.93;;
21352;SDS011;10834;52.268;6.770;2024-02-21T12:30:47;8.07;;;4.43;;
21352;SDS011;10834;52.268;6.770;2024-02-21T12:33:31;8.07;;;4.47;;
21352;SDS011;10834;52.268;6.770;2024-02-21T12:36:16;8.00;;;4.63;;
21352;SDS011;10834;52.268;6.770;2024-02-21T12:39:00;10.07;;;4.73;;
21352;SDS011;10834;52.268;6.770;2024-02-21T12:41:46;9.40;;;5.07;;
21352;SDS011;10834;52.268;6.770;2024-02-21T12:44:30;7.73;;;5.30;;
21352;SDS011;10834;52.268;6.770;2024-02-21T12:47:15;10.97;;;5.23;;
21352;SDS011;10834;52.268;6.770;2024-02-21T12:50:00;10.57;;;5.47;;
21352;SDS011;10834;52.268;6.770;2024-02-21T12:52:46;10.73;;;4.77;;
21352;SDS011;10834;52.268;6.770;2024-02-21T12:55:30;8.27;;;4.80;;
21352;SDS011;10834;52.268;6.770;2024-02-21T12:58:15;10.37;;;4.50;;
21352;SDS011;10834;52.268;6.770;2024-02-21T13:00:59;7.40;;;4.73;;
21352;SDS011;10834;52.268;6.770;2024-02-21T13:03:43;9.67;;;4.70;;
21352;SDS011;10834;52.268;6.770;2024-02-21T13:06:27;8.73;;;4.27;;
21352;SDS011;10834;52.268;6.770;2024-02-21T13:09:11;8.30;;;4.90;;
21352;SDS011;10834;52.268;6.770;2024-02-21T13:11:57;9.13;;;4.40;;
21352;SDS011;10834;52.268;6.770;2024-02-21T13:14:41;7.00;;;4.70;;
21352;SDS011;10834;52.268;6.770;2024-02-21T13:17:27;9.30;;;4.50;;
21352;SDS011;10834;52.268;6.770;2024-02-21T13:20:14;11.57;;;4.83;;
21352;SDS011;10834;52.268;6.770;2024-02-21T13:22:58;10.83;;;4.67;;
21352;SDS011;10834;52.268;6.770;2024-02-21T13:25:42;10.07;;;4.53;;
21352;SDS011;10834;52.268;6.770;2024-02-21T13:28:27;9.57;;;4.10;;
21352;SDS011;10834;52.268;6.770;2024-02-21T13:31:11;15.30;;;5.13;;
21352;SDS011;10834;52.268;6.770;2024-02-21T13:33:56;7.63;;;4.00;;
21352;SDS011;10834;52.268;6.770;2024-02-21T13:36:40;8.03;;;3.93;;
21352;SDS011;10834;52.268;6.770;2024-02-21T13:39:24;10.70;;;4.33;;
21352;SDS011;10834;52.268;6.770;2024-02-21T13:42:08;8.93;;;4.30;;
21352;SDS011;10834;52.268;6.770;2024-02-21T13:44:52;6.57;;;4.43;;
21352;SDS011;10834;52.268;6.770;2024-02-21T13:47:36;10.53;;;4.60;;
21352;SDS011;10834;52.268;6.770;2024-02-21T13:50:23;10.47;;;4.23;;
21352;SDS011;10834;52.268;6.770;2024-02-21T13:53:13;7.97;;;3.93;;
21352;SDS011;10834;52.268;6.770;2024-02-21T13:55:57;11.63;;;4.90;;
21352;SDS011;10834;52.268;6.770;2024-02-21T13:58:41;9.97;;;3.80;;
21352;SDS011;10834;52.268;6.770;2024-02-21T14:01:26;8.17;;;3.90;;
21352;SDS011;10834;52.268;6.770;2024-02-21T14:04:11;6.57;;;3.93;;
21352;SDS011;10834;52.268;6.770;2024-02-21T14:06:55;7.00;;;4.30;;
21352;SDS011;10834;52.268;6.770;2024-02-21T14:09:39;10.33;;;4.07;;
21352;SDS011;10834;52.268;6.770;2024-02-21T14:12:23;6.73;;;4.27;;
21352;SDS011;10834;52.268;6.770;2024-02-21T14:15:08;8.33;;;4.07;;
21352;SDS011;10834;52.268;6.770;2024-02-21T14:17:52;7.80;;;4.13;;
21352;SDS011;10834;52.268;6.770;2024-02-21T14:20:37;6.77;;;3.90;;
21352;SDS011;10834;52.268;6.770;2024-02-21T14:23:21;9.23;;;4.10;;
21352;SDS011;10834;52.268;6.770;2024-02-21T14:26:05;9.93;;;5.27;;
21352;SDS011;10834;52.268;6.770;2024-02-21T14:28:50;9.37;;;4.10;;
21352;SDS011;10834;52.268;6.770;2024-02-21T14:31:34;9.13;;;3.83;;
21352;SDS011;10834;52.268;6.770;2024-02-21T14:34:18;10.57;;;4.20;;
21352;SDS011;10834;52.268;6.770;2024-02-21T14:37:02;12.73;;;4.20;;
21352;SDS011;10834;52.268;6.770;2024-02-21T14:39:47;8.20;;;3.60;;
21352;SDS011;10834;52.268;6.770;2024-02-21T14:42:32;10.67;;;4.33;;
21352;SDS011;10834;52.268;6.770;2024-02-21T14:45:16;8.23;;;3.83;;
21352;SDS011;10834;52.268;6.770;2024-02-21T14:48:00;10.53;;;3.67;;
21352;SDS011;10834;52.268;6.770;2024-02-21T14:50:45;6.73;;;4.13;;
21352;SDS011;10834;52.268;6.770;2024-02-21T14:53:29;8.97;;;3.67;;
21352;SDS011;10834;52.268;6.770;2024-02-21T14:56:14;8.63;;;4.07;;
21352;SDS011;10834;52.268;6.770;2024-02-21T14:59:00;11.23;;;3.87;;
21352;SDS011;10834;52.268;6.770;2024-02-21T15:01:44;9.63;;;3.97;;
21352;SDS011;10834;52.268;6.770;2024-02-21T15:04:28;9.37;;;3.87;;
21352;SDS011;10834;52.268;6.770;2024-02-21T15:07:12;6.63;;;3.43;;
21352;SDS011;10834;52.268;6.770;2024-02-21T15:09:56;10.30;;;3.47;;
21352;SDS011;10834;52.268;6.770;2024-02-21T15:12:41;8.07;;;3.90;;
21352;SDS011;10834;52.268;6.770;2024-02-21T15:15:25;7.87;;;4.27;;
21352;SDS011;10834;52.268;6.770;2024-02-21T15:18:09;9.93;;;4.30;;
21352;SDS011;10834;52.268;6.770;2024-02-21T15:20:53;10.93;;;3.83;;
21352;SDS011;10834;52.268;6.770;2024-02-21T15:23:38;6.97;;;4.10;;
21352;SDS011;10834;52.268;6.770;2024-02-21T15:26:23;6.27;;;3.40;;
21352;SDS011;10834;52.268;6.770;2024-02-21T15:29:07;8.80;;;3.50;;
21352;SDS011;10834;52.268;6.770;2024-02-21T15:31:53;8.40;;;4.20;;
21352;SDS011;10834;52.268;6.770;2024-02-21T15:34:37;6.70;;;3.50;;
21352;SDS011;10834;52.268;6.770;2024-02-21T15:37:21;7.97;;;3.80;;
21352;SDS011;10834;52.268;6.770;2024-02-21T15:40:05;7.37;;;3.90;;
21352;SDS011;10834;52.268;6.770;2024-02-21T15:42:51;8.03;;;3.80;;
21352;SDS011;10834;52.268;6.770;2024-02-21T15:45:37;6.23;;;3.27;;
21352;SDS011;10834;52.268;6.770;2024-02-21T15:48:25;6.50;;;4.50;;
21352;SDS011;10834;52.268;6.770;2024-02-21T15:51:10;10.93;;;5.77;;
21352;SDS011;10834;52.268;6.770;2024-02-21T15:53:54;10.00;;;4.63;;
21352;SDS011;10834;52.268;6.770;2024-02-21T15:56:38;5.53;;;4.17;;
21352;SDS011;10834;52.268;6.770;2024-02-21T15:59:22;8.13;;;3.87;;
21352;SDS011;10834;52.268;6.770;2024-02-21T16:02:06;7.60;;;3.80;;
21352;SDS011;10834;52.268;6.770;2024-02-21T16:04:50;8.53;;;3.50;;
21352;SDS011;10834;52.268;6.770;2024-02-21T16:07:34;8.20;;;3.30;;
21352;SDS011;10834;52.268;6.770;2024-02-21T16:10:19;11.13;;;3.90;;
21352;SDS011;10834;52.268;6.770;2024-02-21T16:13:03;9.67;;;3.40;;
21352;SDS011;10834;52.268;6.770;2024-02-21T16:15:47;88.00;;;34.10;;
21352;SDS011;10834;52.268;6.770;2024-02-21T16:18:32;8.73;;;4.80;;